sensor_id;sensor_type;location;lat;lon;timestamp;P1;durP1;ratioP1;P2;durP2;ratioP2
54139;SDS011;40046;53.254;5.900;2023-07-28T00:01:28;29.48;;;9.77;;
54139;SDS011;40046;53.254;5.900;2023-07-28T00:03:55;26.33;;;9.18;;
54139;SDS011;40046;53.254;5.900;2023-07-28T00:06:23;27.33;;;9.73;;
54139;SDS011;40046;53.254;5.900;2023-07-28T00:08:49;26.40;;;8.63;;
54139;SDS011;40046;53.254;5.900;2023-07-28T00:11:15;20.73;;;7.60;;
54139;SDS011;40046;53.254;5.900;2023-07-28T00:13:42;29.35;;;9.35;;
54139;SDS011;40046;53.254;5.900;2023-07-28T00:16:09;30.65;;;8.93;;
54139;SDS011;40046;53.254;5.900;2023-07-28T00:18:35;24.92;;;8.00;;
54139;SDS011;40046;53.254;5.900;2023-07-28T00:21:01;26.83;;;8.13;;
54139;SDS011;40046;53.254;5.900;2023-07-28T00:23:27;32.92;;;8.90;;
54139;SDS011;40046;53.254;5.900;2023-07-28T00:25:54;26.60;;;9.50;;
54139;SDS011;40046;53.254;5.900;2023-07-28T00:28:20;18.77;;;7.47;;
54139;SDS011;40046;53.254;5.900;2023-07-28T00:30:49;37.42;;;10.25;;
54139;SDS011;40046;53.254;5.900;2023-07-28T00:33:16;28.05;;;10.32;;
54139;SDS011;40046;53.254;5.900;2023-07-28T00:35:42;33.10;;;9.30;;
54139;SDS011;40046;53.254;5.900;2023-07-28T00:38:09;25.90;;;9.60;;
54139;SDS011;40046;53.254;5.900;2023-07-28T00:40:36;27.40;;;8.27;;
54139;SDS011;40046;53.254;5.900;2023-07-28T00:43:02;22.55;;;7.50;;
54139;SDS011;40046;53.254;5.900;2023-07-28T00:45:28;28.67;;;10.35;;
54139;SDS011;40046;53.254;5.900;2023-07-28T00:47:55;27.77;;;9.55;;
54139;SDS011;40046;53.254;5.900;2023-07-28T00:50:25;25.70;;;9.77;;
54139;SDS011;40046;53.254;5.900;2023-07-28T00:52:51;25.20;;;8.85;;
54139;SDS011;40046;53.254;5.900;2023-07-28T00:55:17;27.67;;;8.95;;
54139;SDS011;40046;53.254;5.900;2023-07-28T00:57:44;35.25;;;11.35;;
54139;SDS011;40046;53.254;5.900;2023-07-28T01:00:10;25.95;;;9.85;;
54139;SDS011;40046;53.254;5.900;2023-07-28T01:02:36;28.23;;;10.15;;
54139;SDS011;40046;53.254;5.900;2023-07-28T01:05:03;32.63;;;9.77;;
54139;SDS011;40046;53.254;5.900;2023-07-28T01:07:32;27.40;;;10.73;;
54139;SDS011;40046;53.254;5.900;2023-07-28T01:10:13;32.15;;;11.07;;
54139;SDS011;40046;53.254;5.900;2023-07-28T01:12:40;22.52;;;9.70;;
54139;SDS011;40046;53.254;5.900;2023-07-28T01:15:07;30.05;;;11.30;;
54139;SDS011;40046;53.254;5.900;2023-07-28T01:17:33;28.80;;;11.50;;
54139;SDS011;40046;53.254;5.900;2023-07-28T01:19:59;22.77;;;10.07;;
54139;SDS011;40046;53.254;5.900;2023-07-28T01:27:46;34.78;;;12.30;;
54139;SDS011;40046;53.254;5.900;2023-07-28T01:30:12;31.80;;;10.85;;
54139;SDS011;40046;53.254;5.900;2023-07-28T01:32:38;28.80;;;12.02;;
54139;SDS011;40046;53.254;5.900;2023-07-28T01:35:04;33.10;;;11.80;;
54139;SDS011;40046;53.254;5.900;2023-07-28T01:37:31;32.53;;;12.80;;
54139;SDS011;40046;53.254;5.900;2023-07-28T01:39:58;32.17;;;12.07;;
54139;SDS011;40046;53.254;5.900;2023-07-28T01:42:24;31.30;;;11.40;;
54139;SDS011;40046;53.254;5.900;2023-07-28T01:44:50;27.27;;;10.75;;
54139;SDS011;40046;53.254;5.900;2023-07-28T01:47:16;27.20;;;11.55;;
54139;SDS011;40046;53.254;5.900;2023-07-28T01:49:42;29.35;;;10.35;;
54139;SDS011;40046;53.254;5.900;2023-07-28T01:52:08;25.92;;;9.95;;
54139;SDS011;40046;53.254;5.900;2023-07-28T01:54:34;29.27;;;10.70;;
54139;SDS011;40046;53.254;5.900;2023-07-28T01:57:01;23.98;;;9.50;;
54139;SDS011;40046;53.254;5.900;2023-07-28T01:59:27;24.23;;;9.82;;
54139;SDS011;40046;53.254;5.900;2023-07-28T02:01:53;24.88;;;9.18;;
54139;SDS011;40046;53.254;5.900;2023-07-28T02:04:19;25.25;;;8.73;;
54139;SDS011;40046;53.254;5.900;2023-07-28T02:06:45;28.08;;;8.68;;
54139;SDS011;40046;53.254;5.900;2023-07-28T02:09:11;30.17;;;9.63;;
54139;SDS011;40046;53.254;5.900;2023-07-28T02:11:37;24.35;;;9.13;;
54139;SDS011;40046;53.254;5.900;2023-07-28T02:14:04;23.77;;;8.43;;
54139;SDS011;40046;53.254;5.900;2023-07-28T02:16:30;28.58;;;8.20;;
54139;SDS011;40046;53.254;5.900;2023-07-28T02:18:57;22.33;;;8.15;;
54139;SDS011;40046;53.254;5.900;2023-07-28T02:21:23;24.17;;;9.10;;
54139;SDS011;40046;53.254;5.900;2023-07-28T02:23:49;16.73;;;7.03;;
54139;SDS011;40046;53.254;5.900;2023-07-28T02:26:15;25.90;;;9.23;;
54139;SDS011;40046;53.254;5.900;2023-07-28T02:28:42;20.95;;;6.68;;
54139;SDS011;40046;53.254;5.900;2023-07-28T02:31:08;21.73;;;7.13;;
54139;SDS011;40046;53.254;5.900;2023-07-28T02:33:34;21.02;;;8.05;;
54139;SDS011;40046;53.254;5.900;2023-07-28T02:36:02;17.95;;;7.13;;
54139;SDS011;40046;53.254;5.900;2023-07-28T02:38:28;22.55;;;7.10;;
54139;SDS011;40046;53.254;5.900;2023-07-28T02:40:55;17.83;;;6.60;;
54139;SDS011;40046;53.254;5.900;2023-07-28T02:43:21;23.10;;;7.10;;
54139;SDS011;40046;53.254;5.900;2023-07-28T02:45:48;19.98;;;7.03;;
54139;SDS011;40046;53.254;5.900;2023-07-28T02:48:19;14.80;;;6.47;;
54139;SDS011;40046;53.254;5.900;2023-07-28T02:50:46;18.35;;;6.40;;
54139;SDS011;40046;53.254;5.900;2023-07-28T02:53:13;15.90;;;6.80;;
54139;SDS011;40046;53.254;5.900;2023-07-28T02:55:43;18.48;;;7.18;;
54139;SDS011;40046;53.254;5.900;2023-07-28T02:58:09;17.70;;;6.00;;
54139;SDS011;40046;53.254;5.900;2023-07-28T03:00:43;13.88;;;6.63;;
54139;SDS011;40046;53.254;5.900;2023-07-28T03:03:14;20.85;;;7.57;;
54139;SDS011;40046;53.254;5.900;2023-07-28T03:05:40;13.35;;;5.10;;
54139;SDS011;40046;53.254;5.900;2023-07-28T03:08:22;19.08;;;6.22;;
54139;SDS011;40046;53.254;5.900;2023-07-28T03:10:50;10.20;;;4.35;;
54139;SDS011;40046;53.254;5.900;2023-07-28T03:13:16;21.23;;;5.95;;
54139;SDS011;40046;53.254;5.900;2023-07-28T03:15:44;20.13;;;5.90;;
54139;SDS011;40046;53.254;5.900;2023-07-28T03:18:10;18.20;;;6.03;;
54139;SDS011;40046;53.254;5.900;2023-07-28T03:20:36;24.23;;;6.18;;
54139;SDS011;40046;53.254;5.900;2023-07-28T03:23:02;19.00;;;5.72;;
54139;SDS011;40046;53.254;5.900;2023-07-28T03:25:29;18.25;;;7.18;;
54139;SDS011;40046;53.254;5.900;2023-07-28T03:27:55;16.30;;;5.40;;
54139;SDS011;40046;53.254;5.900;2023-07-28T03:30:21;21.90;;;6.65;;
54139;SDS011;40046;53.254;5.900;2023-07-28T03:32:47;19.67;;;6.03;;
54139;SDS011;40046;53.254;5.900;2023-07-28T03:35:13;17.85;;;6.85;;
54139;SDS011;40046;53.254;5.900;2023-07-28T03:37:45;14.80;;;6.10;;
54139;SDS011;40046;53.254;5.900;2023-07-28T03:40:11;15.60;;;5.28;;
54139;SDS011;40046;53.254;5.900;2023-07-28T03:42:48;14.07;;;6.50;;
54139;SDS011;40046;53.254;5.900;2023-07-28T03:45:14;14.88;;;5.35;;
54139;SDS011;40046;53.254;5.900;2023-07-28T03:47:41;17.92;;;6.22;;
54139;SDS011;40046;53.254;5.900;2023-07-28T03:50:07;15.10;;;5.65;;
54139;SDS011;40046;53.254;5.900;2023-07-28T03:52:33;21.05;;;6.32;;
54139;SDS011;40046;53.254;5.900;2023-07-28T03:55:00;16.70;;;5.13;;
54139;SDS011;40046;53.254;5.900;2023-07-28T03:57:26;12.05;;;5.10;;
54139;SDS011;40046;53.254;5.900;2023-07-28T03:59:52;15.75;;;5.03;;
54139;SDS011;40046;53.254;5.900;2023-07-28T04:02:19;17.05;;;6.15;;
54139;SDS011;40046;53.254;5.900;2023-07-28T04:04:45;9.23;;;4.22;;
54139;SDS011;40046;53.254;5.900;2023-07-28T04:07:11;11.75;;;4.80;;
54139;SDS011;40046;53.254;5.900;2023-07-28T04:09:38;9.90;;;4.65;;
54139;SDS011;40046;53.254;5.900;2023-07-28T04:12:04;12.30;;;4.53;;
54139;SDS011;40046;53.254;5.900;2023-07-28T04:14:30;16.60;;;6.18;;
54139;SDS011;40046;53.254;5.900;2023-07-28T04:16:56;16.17;;;4.90;;
54139;SDS011;40046;53.254;5.900;2023-07-28T04:19:22;11.88;;;5.55;;
54139;SDS011;40046;53.254;5.900;2023-07-28T04:21:48;18.33;;;6.72;;
54139;SDS011;40046;53.254;5.900;2023-07-28T04:24:15;14.32;;;6.13;;
54139;SDS011;40046;53.254;5.900;2023-07-28T04:26:46;14.65;;;5.93;;
54139;SDS011;40046;53.254;5.900;2023-07-28T04:29:14;11.43;;;5.80;;
54139;SDS011;40046;53.254;5.900;2023-07-28T04:31:40;13.10;;;5.53;;
54139;SDS011;40046;53.254;5.900;2023-07-28T04:34:10;20.50;;;7.25;;
54139;SDS011;40046;53.254;5.900;2023-07-28T04:36:56;13.65;;;5.93;;
54139;SDS011;40046;53.254;5.900;2023-07-28T04:39:27;17.35;;;6.40;;
54139;SDS011;40046;53.254;5.900;2023-07-28T04:41:53;11.05;;;6.55;;
54139;SDS011;40046;53.254;5.900;2023-07-28T04:44:20;12.90;;;7.00;;
54139;SDS011;40046;53.254;5.900;2023-07-28T04:46:47;14.13;;;7.57;;
54139;SDS011;40046;53.254;5.900;2023-07-28T04:49:14;13.38;;;9.48;;
54139;SDS011;40046;53.254;5.900;2023-07-28T04:51:58;10.93;;;8.23;;
54139;SDS011;40046;53.254;5.900;2023-07-28T04:54:39;12.25;;;9.25;;
54139;SDS011;40046;53.254;5.900;2023-07-28T04:57:05;13.77;;;9.80;;
54139;SDS011;40046;53.254;5.900;2023-07-28T04:59:33;14.30;;;10.10;;
54139;SDS011;40046;53.254;5.900;2023-07-28T05:01:59;11.60;;;10.02;;
54139;SDS011;40046;53.254;5.900;2023-07-28T05:04:26;11.85;;;10.65;;
54139;SDS011;40046;53.254;5.900;2023-07-28T05:06:52;18.63;;;13.27;;
54139;SDS011;40046;53.254;5.900;2023-07-28T05:09:18;12.00;;;10.63;;
54139;SDS011;40046;53.254;5.900;2023-07-28T05:11:44;13.20;;;10.80;;
54139;SDS011;40046;53.254;5.900;2023-07-28T05:14:10;14.35;;;11.13;;
54139;SDS011;40046;53.254;5.900;2023-07-28T05:16:36;13.18;;;10.80;;
54139;SDS011;40046;53.254;5.900;2023-07-28T05:19:05;12.85;;;10.98;;
54139;SDS011;40046;53.254;5.900;2023-07-28T05:21:50;12.98;;;11.68;;
54139;SDS011;40046;53.254;5.900;2023-07-28T05:24:20;13.85;;;12.43;;
54139;SDS011;40046;53.254;5.900;2023-07-28T05:26:46;17.50;;;13.27;;
54139;SDS011;40046;53.254;5.900;2023-07-28T05:29:13;16.15;;;13.00;;
54139;SDS011;40046;53.254;5.900;2023-07-28T05:31:40;14.02;;;12.70;;
54139;SDS011;40046;53.254;5.900;2023-07-28T05:34:16;13.90;;;11.73;;
54139;SDS011;40046;53.254;5.900;2023-07-28T05:36:43;11.07;;;9.98;;
54139;SDS011;40046;53.254;5.900;2023-07-28T05:39:09;14.70;;;13.25;;
54139;SDS011;40046;53.254;5.900;2023-07-28T05:41:41;12.43;;;10.93;;
54139;SDS011;40046;53.254;5.900;2023-07-28T05:44:09;17.88;;;12.98;;
54139;SDS011;40046;53.254;5.900;2023-07-28T05:46:35;14.30;;;12.80;;
54139;SDS011;40046;53.254;5.900;2023-07-28T05:49:02;12.85;;;11.65;;
54139;SDS011;40046;53.254;5.900;2023-07-28T05:51:28;16.38;;;11.85;;
54139;SDS011;40046;53.254;5.900;2023-07-28T05:53:54;13.55;;;12.15;;
54139;SDS011;40046;53.254;5.900;2023-07-28T05:56:20;14.98;;;13.55;;
54139;SDS011;40046;53.254;5.900;2023-07-28T05:58:47;12.82;;;11.52;;
54139;SDS011;40046;53.254;5.900;2023-07-28T06:01:13;15.23;;;13.13;;
54139;SDS011;40046;53.254;5.900;2023-07-28T06:04:09;14.35;;;12.43;;
54139;SDS011;40046;53.254;5.900;2023-07-28T06:06:41;11.73;;;10.52;;
54139;SDS011;40046;53.254;5.900;2023-07-28T06:09:07;11.73;;;10.63;;
54139;SDS011;40046;53.254;5.900;2023-07-28T06:11:34;11.00;;;9.73;;
54139;SDS011;40046;53.254;5.900;2023-07-28T06:14:02;11.13;;;9.80;;
54139;SDS011;40046;53.254;5.900;2023-07-28T06:16:28;10.18;;;9.13;;
54139;SDS011;40046;53.254;5.900;2023-07-28T06:18:54;27.63;;;12.05;;
54139;SDS011;40046;53.254;5.900;2023-07-28T06:21:22;12.07;;;10.82;;
54139;SDS011;40046;53.254;5.900;2023-07-28T06:23:48;13.23;;;11.85;;
54139;SDS011;40046;53.254;5.900;2023-07-28T06:26:15;14.00;;;12.65;;
54139;SDS011;40046;53.254;5.900;2023-07-28T06:28:41;12.38;;;11.27;;
54139;SDS011;40046;53.254;5.900;2023-07-28T06:31:08;13.68;;;12.48;;
54139;SDS011;40046;53.254;5.900;2023-07-28T06:33:34;12.30;;;10.52;;
54139;SDS011;40046;53.254;5.900;2023-07-28T06:36:02;12.80;;;11.55;;
54139;SDS011;40046;53.254;5.900;2023-07-28T06:38:28;11.85;;;10.05;;
54139;SDS011;40046;53.254;5.900;2023-07-28T06:40:54;10.73;;;9.40;;
54139;SDS011;40046;53.254;5.900;2023-07-28T06:43:21;9.68;;;8.38;;
54139;SDS011;40046;53.254;5.900;2023-07-28T06:45:50;8.93;;;8.10;;
54139;SDS011;40046;53.254;5.900;2023-07-28T06:48:16;8.85;;;8.02;;
54139;SDS011;40046;53.254;5.900;2023-07-28T06:50:42;12.43;;;11.23;;
54139;SDS011;40046;53.254;5.900;2023-07-28T06:53:09;11.30;;;9.88;;
54139;SDS011;40046;53.254;5.900;2023-07-28T06:55:35;12.68;;;11.38;;
54139;SDS011;40046;53.254;5.900;2023-07-28T06:58:04;14.02;;;11.85;;
54139;SDS011;40046;53.254;5.900;2023-07-28T07:00:31;13.50;;;11.95;;
54139;SDS011;40046;53.254;5.900;2023-07-28T07:02:57;11.73;;;10.63;;
54139;SDS011;40046;53.254;5.900;2023-07-28T07:05:23;10.25;;;8.98;;
54139;SDS011;40046;53.254;5.900;2023-07-28T07:07:49;10.52;;;9.43;;
54139;SDS011;40046;53.254;5.900;2023-07-28T07:10:15;9.68;;;8.73;;
54139;SDS011;40046;53.254;5.900;2023-07-28T07:12:41;10.35;;;9.25;;
54139;SDS011;40046;53.254;5.900;2023-07-28T07:15:08;12.73;;;10.65;;
54139;SDS011;40046;53.254;5.900;2023-07-28T07:17:34;14.35;;;10.52;;
54139;SDS011;40046;53.254;5.900;2023-07-28T07:20:00;11.15;;;10.05;;
54139;SDS011;40046;53.254;5.900;2023-07-28T07:22:26;12.35;;;11.07;;
54139;SDS011;40046;53.254;5.900;2023-07-28T07:24:53;13.43;;;11.32;;
54139;SDS011;40046;53.254;5.900;2023-07-28T07:27:21;13.13;;;11.60;;
54139;SDS011;40046;53.254;5.900;2023-07-28T07:29:47;12.18;;;10.98;;
54139;SDS011;40046;53.254;5.900;2023-07-28T07:32:13;12.43;;;11.23;;
54139;SDS011;40046;53.254;5.900;2023-07-28T07:34:41;10.90;;;9.80;;
54139;SDS011;40046;53.254;5.900;2023-07-28T07:37:07;13.20;;;9.82;;
54139;SDS011;40046;53.254;5.900;2023-07-28T07:39:33;11.57;;;10.35;;
54139;SDS011;40046;53.254;5.900;2023-07-28T07:42:01;13.25;;;12.00;;
54139;SDS011;40046;53.254;5.900;2023-07-28T07:44:27;13.50;;;12.20;;
54139;SDS011;40046;53.254;5.900;2023-07-28T07:46:53;14.25;;;12.88;;
54139;SDS011;40046;53.254;5.900;2023-07-28T07:49:19;15.02;;;13.52;;
54139;SDS011;40046;53.254;5.900;2023-07-28T07:51:45;15.15;;;13.73;;
54139;SDS011;40046;53.254;5.900;2023-07-28T07:54:12;14.52;;;13.02;;
54139;SDS011;40046;53.254;5.900;2023-07-28T07:56:41;13.57;;;12.23;;
54139;SDS011;40046;53.254;5.900;2023-07-28T07:59:07;13.35;;;11.00;;
54139;SDS011;40046;53.254;5.900;2023-07-28T08:01:33;12.18;;;11.07;;
54139;SDS011;40046;53.254;5.900;2023-07-28T08:03:59;11.70;;;10.60;;
54139;SDS011;40046;53.254;5.900;2023-07-28T08:06:25;11.90;;;10.80;;
54139;SDS011;40046;53.254;5.900;2023-07-28T08:08:52;11.45;;;10.35;;
54139;SDS011;40046;53.254;5.900;2023-07-28T08:11:19;12.00;;;10.80;;
54139;SDS011;40046;53.254;5.900;2023-07-28T08:13:45;13.07;;;11.23;;
54139;SDS011;40046;53.254;5.900;2023-07-28T08:16:13;11.45;;;10.25;;
54139;SDS011;40046;53.254;5.900;2023-07-28T08:18:39;13.63;;;12.32;;
54139;SDS011;40046;53.254;5.900;2023-07-28T08:21:06;11.23;;;10.13;;
54139;SDS011;40046;53.254;5.900;2023-07-28T08:23:32;10.85;;;9.75;;
54139;SDS011;40046;53.254;5.900;2023-07-28T08:25:58;8.48;;;7.60;;
54139;SDS011;40046;53.254;5.900;2023-07-28T08:28:24;9.13;;;8.27;;
54139;SDS011;40046;53.254;5.900;2023-07-28T08:30:54;8.38;;;7.63;;
54139;SDS011;40046;53.254;5.900;2023-07-28T08:33:21;10.98;;;7.45;;
54139;SDS011;40046;53.254;5.900;2023-07-28T08:35:47;8.93;;;7.25;;
54139;SDS011;40046;53.254;5.900;2023-07-28T08:38:14;9.02;;;6.95;;
54139;SDS011;40046;53.254;5.900;2023-07-28T08:40:40;8.30;;;7.50;;
54139;SDS011;40046;53.254;5.900;2023-07-28T08:43:07;8.35;;;7.45;;
54139;SDS011;40046;53.254;5.900;2023-07-28T08:45:33;9.02;;;7.38;;
54139;SDS011;40046;53.254;5.900;2023-07-28T08:47:59;8.27;;;7.00;;
54139;SDS011;40046;53.254;5.900;2023-07-28T08:50:25;11.93;;;8.35;;
54139;SDS011;40046;53.254;5.900;2023-07-28T08:52:51;8.82;;;7.93;;
54139;SDS011;40046;53.254;5.900;2023-07-28T08:55:17;8.88;;;8.07;;
54139;SDS011;40046;53.254;5.900;2023-07-28T08:57:44;8.35;;;7.45;;
54139;SDS011;40046;53.254;5.900;2023-07-28T09:00:10;8.05;;;7.25;;
54139;SDS011;40046;53.254;5.900;2023-07-28T09:02:39;8.18;;;7.38;;
54139;SDS011;40046;53.254;5.900;2023-07-28T09:05:05;8.55;;;6.72;;
54139;SDS011;40046;53.254;5.900;2023-07-28T09:07:35;7.13;;;6.43;;
54139;SDS011;40046;53.254;5.900;2023-07-28T09:10:01;6.22;;;5.55;;
54139;SDS011;40046;53.254;5.900;2023-07-28T09:12:30;7.45;;;4.90;;
54139;SDS011;40046;53.254;5.900;2023-07-28T09:14:57;5.68;;;5.13;;
54139;SDS011;40046;53.254;5.900;2023-07-28T09:17:23;6.80;;;5.57;;
54139;SDS011;40046;53.254;5.900;2023-07-28T09:19:52;6.63;;;5.18;;
54139;SDS011;40046;53.254;5.900;2023-07-28T09:22:19;5.40;;;4.68;;
54139;SDS011;40046;53.254;5.900;2023-07-28T09:24:45;4.68;;;4.22;;
54139;SDS011;40046;53.254;5.900;2023-07-28T09:27:23;5.65;;;4.07;;
54139;SDS011;40046;53.254;5.900;2023-07-28T09:29:50;7.15;;;4.38;;
54139;SDS011;40046;53.254;5.900;2023-07-28T09:32:18;5.95;;;4.90;;
54139;SDS011;40046;53.254;5.900;2023-07-28T09:35:15;6.57;;;4.70;;
54139;SDS011;40046;53.254;5.900;2023-07-28T09:37:41;5.10;;;4.20;;
54139;SDS011;40046;53.254;5.900;2023-07-28T09:40:08;5.15;;;3.40;;
54139;SDS011;40046;53.254;5.900;2023-07-28T09:42:37;4.97;;;3.58;;
54139;SDS011;40046;53.254;5.900;2023-07-28T09:45:04;6.35;;;3.70;;
54139;SDS011;40046;53.254;5.900;2023-07-28T09:47:31;4.43;;;3.65;;
54139;SDS011;40046;53.254;5.900;2023-07-28T09:49:58;5.47;;;3.35;;
54139;SDS011;40046;53.254;5.900;2023-07-28T09:52:24;5.22;;;4.13;;
54139;SDS011;40046;53.254;5.900;2023-07-28T09:54:53;6.13;;;4.97;;
54139;SDS011;40046;53.254;5.900;2023-07-28T09:57:22;3.88;;;3.20;;
54139;SDS011;40046;53.254;5.900;2023-07-28T09:59:49;6.60;;;2.88;;
54139;SDS011;40046;53.254;5.900;2023-07-28T10:02:18;3.72;;;2.70;;
54139;SDS011;40046;53.254;5.900;2023-07-28T10:04:44;4.78;;;3.40;;
54139;SDS011;40046;53.254;5.900;2023-07-28T10:07:11;4.55;;;3.50;;
54139;SDS011;40046;53.254;5.900;2023-07-28T10:09:38;4.45;;;3.65;;
54139;SDS011;40046;53.254;5.900;2023-07-28T10:12:04;3.88;;;3.22;;
54139;SDS011;40046;53.254;5.900;2023-07-28T10:14:33;5.50;;;3.28;;
54139;SDS011;40046;53.254;5.900;2023-07-28T10:17:00;6.70;;;3.45;;
54139;SDS011;40046;53.254;5.900;2023-07-28T10:19:31;4.45;;;3.00;;
54139;SDS011;40046;53.254;5.900;2023-07-28T10:22:00;3.55;;;2.42;;
54139;SDS011;40046;53.254;5.900;2023-07-28T10:27:11;4.45;;;2.28;;
54139;SDS011;40046;53.254;5.900;2023-07-28T10:29:57;4.72;;;2.40;;
54139;SDS011;40046;53.254;5.900;2023-07-28T10:32:27;5.38;;;2.33;;
54139;SDS011;40046;53.254;5.900;2023-07-28T10:35:01;4.32;;;2.00;;
54139;SDS011;40046;53.254;5.900;2023-07-28T10:37:28;3.17;;;1.98;;
54139;SDS011;40046;53.254;5.900;2023-07-28T10:42:39;4.72;;;2.58;;
54139;SDS011;40046;53.254;5.900;2023-07-28T10:45:05;2.88;;;2.10;;
54139;SDS011;40046;53.254;5.900;2023-07-28T10:47:34;3.03;;;2.10;;
54139;SDS011;40046;53.254;5.900;2023-07-28T10:50:02;2.97;;;1.77;;
54139;SDS011;40046;53.254;5.900;2023-07-28T10:52:29;4.32;;;2.20;;
54139;SDS011;40046;53.254;5.900;2023-07-28T10:54:55;5.95;;;2.58;;
54139;SDS011;40046;53.254;5.900;2023-07-28T10:57:23;3.15;;;2.25;;
54139;SDS011;40046;53.254;5.900;2023-07-28T10:59:51;3.05;;;2.35;;
54139;SDS011;40046;53.254;5.900;2023-07-28T11:02:17;4.63;;;2.50;;
54139;SDS011;40046;53.254;5.900;2023-07-28T11:04:46;5.93;;;2.83;;
54139;SDS011;40046;53.254;5.900;2023-07-28T11:07:13;3.72;;;2.58;;
54139;SDS011;40046;53.254;5.900;2023-07-28T11:09:39;3.83;;;2.22;;
54139;SDS011;40046;53.254;5.900;2023-07-28T11:12:10;5.68;;;2.40;;
54139;SDS011;40046;53.254;5.900;2023-07-28T11:14:47;4.00;;;2.42;;
54139;SDS011;40046;53.254;5.900;2023-07-28T11:17:14;4.85;;;2.22;;
54139;SDS011;40046;53.254;5.900;2023-07-28T11:19:40;3.22;;;1.85;;
54139;SDS011;40046;53.254;5.900;2023-07-28T11:22:06;4.05;;;2.63;;
54139;SDS011;40046;53.254;5.900;2023-07-28T11:24:32;3.85;;;2.80;;
54139;SDS011;40046;53.254;5.900;2023-07-28T11:26:59;4.30;;;2.45;;
54139;SDS011;40046;53.254;5.900;2023-07-28T11:29:25;3.15;;;1.92;;
54139;SDS011;40046;53.254;5.900;2023-07-28T11:31:52;4.75;;;2.55;;
54139;SDS011;40046;53.254;5.900;2023-07-28T11:34:18;5.22;;;2.30;;
54139;SDS011;40046;53.254;5.900;2023-07-28T11:36:45;4.00;;;2.30;;
54139;SDS011;40046;53.254;5.900;2023-07-28T11:39:11;3.05;;;2.13;;
54139;SDS011;40046;53.254;5.900;2023-07-28T11:41:39;2.50;;;1.90;;
54139;SDS011;40046;53.254;5.900;2023-07-28T11:44:05;4.47;;;1.85;;
54139;SDS011;40046;53.254;5.900;2023-07-28T11:46:32;6.75;;;2.85;;
54139;SDS011;40046;53.254;5.900;2023-07-28T11:51:41;4.88;;;1.83;;
54139;SDS011;40046;53.254;5.900;2023-07-28T11:54:12;5.57;;;2.30;;
54139;SDS011;40046;53.254;5.900;2023-07-28T11:56:41;4.03;;;2.20;;
54139;SDS011;40046;53.254;5.900;2023-07-28T11:59:08;6.00;;;1.75;;
54139;SDS011;40046;53.254;5.900;2023-07-28T12:01:35;3.42;;;1.70;;
54139;SDS011;40046;53.254;5.900;2023-07-28T12:04:23;3.53;;;1.92;;
54139;SDS011;40046;53.254;5.900;2023-07-28T12:09:28;5.82;;;1.80;;
54139;SDS011;40046;53.254;5.900;2023-07-28T12:11:56;7.53;;;2.53;;
54139;SDS011;40046;53.254;5.900;2023-07-28T12:14:34;3.05;;;1.80;;
54139;SDS011;40046;53.254;5.900;2023-07-28T12:17:00;4.45;;;1.73;;
54139;SDS011;40046;53.254;5.900;2023-07-28T12:19:28;5.07;;;2.10;;
54139;SDS011;40046;53.254;5.900;2023-07-28T12:21:54;3.22;;;2.33;;
54139;SDS011;40046;53.254;5.900;2023-07-28T12:24:20;2.72;;;1.73;;
54139;SDS011;40046;53.254;5.900;2023-07-28T12:26:46;3.40;;;2.20;;
54139;SDS011;40046;53.254;5.900;2023-07-28T12:29:13;2.97;;;1.70;;
54139;SDS011;40046;53.254;5.900;2023-07-28T12:31:39;2.60;;;1.58;;
54139;SDS011;40046;53.254;5.900;2023-07-28T12:34:05;4.20;;;2.10;;
54139;SDS011;40046;53.254;5.900;2023-07-28T12:36:31;7.97;;;2.03;;
54139;SDS011;40046;53.254;5.900;2023-07-28T12:38:59;6.55;;;1.77;;
54139;SDS011;40046;53.254;5.900;2023-07-28T12:41:25;2.50;;;1.52;;
54139;SDS011;40046;53.254;5.900;2023-07-28T12:43:51;7.43;;;5.10;;
54139;SDS011;40046;53.254;5.900;2023-07-28T12:46:17;3.85;;;2.17;;
54139;SDS011;40046;53.254;5.900;2023-07-28T12:48:43;2.53;;;1.35;;
54139;SDS011;40046;53.254;5.900;2023-07-28T12:51:09;3.22;;;1.80;;
54139;SDS011;40046;53.254;5.900;2023-07-28T12:53:35;2.90;;;1.55;;
54139;SDS011;40046;53.254;5.900;2023-07-28T12:56:01;2.33;;;1.85;;
54139;SDS011;40046;53.254;5.900;2023-07-28T12:58:28;2.28;;;1.38;;
54139;SDS011;40046;53.254;5.900;2023-07-28T13:00:56;4.10;;;2.00;;
54139;SDS011;40046;53.254;5.900;2023-07-28T13:03:24;5.50;;;1.73;;
54139;SDS011;40046;53.254;5.900;2023-07-28T13:05:50;11.60;;;1.88;;
54139;SDS011;40046;53.254;5.900;2023-07-28T13:08:16;4.00;;;1.88;;
54139;SDS011;40046;53.254;5.900;2023-07-28T13:10:42;2.55;;;1.50;;
54139;SDS011;40046;53.254;5.900;2023-07-28T13:13:08;3.67;;;2.25;;
54139;SDS011;40046;53.254;5.900;2023-07-28T13:15:34;2.75;;;1.40;;
54139;SDS011;40046;53.254;5.900;2023-07-28T13:18:01;1.92;;;1.08;;
54139;SDS011;40046;53.254;5.900;2023-07-28T13:20:27;2.60;;;1.77;;
54139;SDS011;40046;53.254;5.900;2023-07-28T13:22:53;3.10;;;1.85;;
54139;SDS011;40046;53.254;5.900;2023-07-28T13:25:19;1.55;;;1.10;;
54139;SDS011;40046;53.254;5.900;2023-07-28T13:27:45;2.08;;;1.23;;
54139;SDS011;40046;53.254;5.900;2023-07-28T13:30:12;2.33;;;1.00;;
54139;SDS011;40046;53.254;5.900;2023-07-28T13:32:38;2.80;;;1.40;;
54139;SDS011;40046;53.254;5.900;2023-07-28T13:35:04;3.05;;;1.15;;
54139;SDS011;40046;53.254;5.900;2023-07-28T13:37:30;4.03;;;1.10;;
54139;SDS011;40046;53.254;5.900;2023-07-28T13:39:56;2.97;;;1.13;;
54139;SDS011;40046;53.254;5.900;2023-07-28T13:42:22;2.10;;;1.27;;
54139;SDS011;40046;53.254;5.900;2023-07-28T13:44:48;2.45;;;1.05;;
54139;SDS011;40046;53.254;5.900;2023-07-28T13:47:15;1.92;;;1.02;;
54139;SDS011;40046;53.254;5.900;2023-07-28T13:49:41;2.58;;;1.25;;
54139;SDS011;40046;53.254;5.900;2023-07-28T13:52:07;1.95;;;1.10;;
54139;SDS011;40046;53.254;5.900;2023-07-28T13:54:33;1.80;;;1.05;;
54139;SDS011;40046;53.254;5.900;2023-07-28T13:56:59;1.73;;;0.88;;
54139;SDS011;40046;53.254;5.900;2023-07-28T13:59:25;1.77;;;1.08;;
54139;SDS011;40046;53.254;5.900;2023-07-28T14:01:51;2.58;;;1.20;;
54139;SDS011;40046;53.254;5.900;2023-07-28T14:04:18;2.40;;;1.10;;
54139;SDS011;40046;53.254;5.900;2023-07-28T14:06:44;4.38;;;1.70;;
54139;SDS011;40046;53.254;5.900;2023-07-28T14:09:10;2.00;;;1.25;;
54139;SDS011;40046;53.254;5.900;2023-07-28T14:11:38;2.70;;;1.10;;
54139;SDS011;40046;53.254;5.900;2023-07-28T14:14:04;2.33;;;1.08;;
54139;SDS011;40046;53.254;5.900;2023-07-28T14:16:30;2.92;;;1.30;;
54139;SDS011;40046;53.254;5.900;2023-07-28T14:18:56;3.42;;;1.48;;
54139;SDS011;40046;53.254;5.900;2023-07-28T14:21:22;3.30;;;1.15;;
54139;SDS011;40046;53.254;5.900;2023-07-28T14:23:48;2.75;;;1.30;;
54139;SDS011;40046;53.254;5.900;2023-07-28T14:26:14;2.40;;;1.33;;
54139;SDS011;40046;53.254;5.900;2023-07-28T14:28:40;3.75;;;1.20;;
54139;SDS011;40046;53.254;5.900;2023-07-28T14:31:07;4.15;;;2.00;;
54139;SDS011;40046;53.254;5.900;2023-07-28T14:33:33;4.47;;;1.17;;
54139;SDS011;40046;53.254;5.900;2023-07-28T14:35:59;2.55;;;1.50;;
54139;SDS011;40046;53.254;5.900;2023-07-28T14:38:25;5.03;;;2.20;;
54139;SDS011;40046;53.254;5.900;2023-07-28T14:40:51;3.10;;;1.67;;
54139;SDS011;40046;53.254;5.900;2023-07-28T14:43:17;2.05;;;1.27;;
54139;SDS011;40046;53.254;5.900;2023-07-28T14:45:44;2.08;;;1.15;;
54139;SDS011;40046;53.254;5.900;2023-07-28T14:48:10;2.88;;;1.50;;
54139;SDS011;40046;53.254;5.900;2023-07-28T14:50:36;2.70;;;1.50;;
54139;SDS011;40046;53.254;5.900;2023-07-28T14:53:02;4.03;;;1.85;;
54139;SDS011;40046;53.254;5.900;2023-07-28T14:55:29;2.97;;;1.55;;